Terminal Aerodrome Forecast
Issued by NWS Amarillo, TX

Home | Current Version | Previous Version | Text Only | Print | Product List | Glossary On
Versions: 1 2 3 4 5 6 7 8 9 10 11 12 13 14 15 16 17
000
FTUS44 KAMA 220310 AAA
TAFGUY
TAF AMD
KGUY 220310Z 2203/2224 01011KT P6SM OVC050
     FM220700 35006KT P6SM FEW020 OVC050
     FM221100 35006KT 3SM BR OVC004
     FM221400 02010KT P6SM FEW030=

USA.gov is the U.S. government's official web portal to all federal, state and local government web resources and services.